sensor_id;sensor_type;location;lat;lon;timestamp;pressure;altitude;pressure_sealevel;temperature;humidity
1371;BME280;14306;49.942;11.570;2024-02-26T00:01:04;95897.91;;;0.28;100.00
1371;BME280;14306;49.942;11.570;2024-02-26T00:02:38;95899.75;;;0.28;100.00
1371;BME280;14306;49.942;11.570;2024-02-26T00:04:12;95895.28;;;0.23;100.00
1371;BME280;14306;49.942;11.570;2024-02-26T00:05:47;95888.38;;;0.17;100.00
1371;BME280;14306;49.942;11.570;2024-02-26T00:07:21;95882.75;;;0.24;100.00
1371;BME280;14306;49.942;11.570;2024-02-26T00:08:54;95892.09;;;0.21;100.00
1371;BME280;14306;49.942;11.570;2024-02-26T00:10:29;95883.00;;;0.27;100.00
1371;BME280;14306;49.942;11.570;2024-02-26T00:12:04;95884.91;;;0.22;100.00
1371;BME280;14306;49.942;11.570;2024-02-26T00:13:39;95882.53;;;0.20;100.00
1371;BME280;14306;49.942;11.570;2024-02-26T00:15:11;95881.75;;;0.15;100.00
1371;BME280;14306;49.942;11.570;2024-02-26T00:16:46;95878.59;;;0.08;100.00
1371;BME280;14306;49.942;11.570;2024-02-26T00:18:21;95863.22;;;-0.01;100.00
1371;BME280;14306;49.942;11.570;2024-02-26T00:19:54;95863.44;;;0.08;100.00
1371;BME280;14306;49.942;11.570;2024-02-26T00:21:29;95867.44;;;0.05;100.00
1371;BME280;14306;49.942;11.570;2024-02-26T00:23:02;95861.56;;;0.08;100.00
1371;BME280;14306;49.942;11.570;2024-02-26T00:24:36;95875.94;;;0.08;100.00
1371;BME280;14306;49.942;11.570;2024-02-26T00:26:11;95864.75;;;0.05;100.00
1371;BME280;14306;49.942;11.570;2024-02-26T00:27:45;95856.50;;;0.07;100.00
1371;BME280;14306;49.942;11.570;2024-02-26T00:29:19;95854.97;;;0.01;100.00
1371;BME280;14306;49.942;11.570;2024-02-26T00:30:52;95857.00;;;0.14;100.00
1371;BME280;14306;49.942;11.570;2024-02-26T00:32:28;95847.19;;;0.09;100.00
1371;BME280;14306;49.942;11.570;2024-02-26T00:34:01;95851.44;;;0.11;100.00
1371;BME280;14306;49.942;11.570;2024-02-26T00:35:36;95836.84;;;0.03;100.00
1371;BME280;14306;49.942;11.570;2024-02-26T00:37:10;95857.22;;;0.23;100.00
1371;BME280;14306;49.942;11.570;2024-02-26T00:38:44;95838.34;;;0.19;100.00
1371;BME280;14306;49.942;11.570;2024-02-26T00:40:23;95844.19;;;0.21;100.00
1371;BME280;14306;49.942;11.570;2024-02-26T00:41:58;95838.09;;;0.16;100.00
1371;BME280;14306;49.942;11.570;2024-02-26T00:43:32;95834.69;;;0.10;100.00
1371;BME280;14306;49.942;11.570;2024-02-26T00:45:07;95845.59;;;0.14;100.00
1371;BME280;14306;49.942;11.570;2024-02-26T00:46:41;95835.97;;;0.18;100.00
1371;BME280;14306;49.942;11.570;2024-02-26T00:48:15;95845.81;;;0.17;100.00
1371;BME280;14306;49.942;11.570;2024-02-26T00:49:49;95837.88;;;0.12;100.00
1371;BME280;14306;49.942;11.570;2024-02-26T00:51:23;95836.84;;;0.08;100.00
1371;BME280;14306;49.942;11.570;2024-02-26T00:52:58;95810.28;;;-0.02;100.00
1371;BME280;14306;49.942;11.570;2024-02-26T00:54:30;95830.75;;;0.03;100.00
1371;BME280;14306;49.942;11.570;2024-02-26T00:56:05;95832.84;;;0.05;100.00
1371;BME280;14306;49.942;11.570;2024-02-26T00:57:40;95834.78;;;0.00;100.00
1371;BME280;14306;49.942;11.570;2024-02-26T00:59:14;95831.31;;;-0.01;100.00
1371;BME280;14306;49.942;11.570;2024-02-26T01:00:47;95830.50;;;-0.01;100.00
1371;BME280;14306;49.942;11.570;2024-02-26T01:02:22;95836.09;;;-0.03;100.00
1371;BME280;14306;49.942;11.570;2024-02-26T01:03:55;95824.69;;;-0.03;100.00
1371;BME280;14306;49.942;11.570;2024-02-26T01:05:29;95831.91;;;-0.09;100.00
1371;BME280;14306;49.942;11.570;2024-02-26T01:07:03;95817.47;;;-0.03;100.00
1371;BME280;14306;49.942;11.570;2024-02-26T01:08:37;95811.59;;;0.00;100.00
1371;BME280;14306;49.942;11.570;2024-02-26T01:10:10;95813.63;;;-0.25;100.00
1371;BME280;14306;49.942;11.570;2024-02-26T01:11:45;95806.69;;;-0.21;100.00
1371;BME280;14306;49.942;11.570;2024-02-26T01:13:19;95831.34;;;-0.06;100.00
1371;BME280;14306;49.942;11.570;2024-02-26T01:14:54;95826.25;;;-0.02;100.00
1371;BME280;14306;49.942;11.570;2024-02-26T01:16:27;95817.06;;;-0.20;100.00
1371;BME280;14306;49.942;11.570;2024-02-26T01:18:03;95825.03;;;-0.20;100.00
1371;BME280;14306;49.942;11.570;2024-02-26T01:19:38;95816.53;;;-0.17;100.00
1371;BME280;14306;49.942;11.570;2024-02-26T01:21:12;95814.94;;;-0.23;100.00
1371;BME280;14306;49.942;11.570;2024-02-26T01:22:45;95817.56;;;-0.18;100.00
1371;BME280;14306;49.942;11.570;2024-02-26T01:24:19;95815.50;;;-0.26;100.00
1371;BME280;14306;49.942;11.570;2024-02-26T01:25:53;95820.00;;;-0.21;100.00
1371;BME280;14306;49.942;11.570;2024-02-26T01:27:27;95818.19;;;-0.31;100.00
1371;BME280;14306;49.942;11.570;2024-02-26T01:29:02;95815.56;;;-0.36;100.00
1371;BME280;14306;49.942;11.570;2024-02-26T01:30:36;95781.09;;;-0.51;100.00
1371;BME280;14306;49.942;11.570;2024-02-26T01:32:09;95829.91;;;-0.32;100.00
1371;BME280;14306;49.942;11.570;2024-02-26T01:33:44;95813.41;;;-0.34;100.00
1371;BME280;14306;49.942;11.570;2024-02-26T01:35:18;95817.69;;;-0.38;100.00
1371;BME280;14306;49.942;11.570;2024-02-26T01:36:52;95801.47;;;-0.36;100.00
1371;BME280;14306;49.942;11.570;2024-02-26T01:38:25;95811.03;;;-0.30;100.00
1371;BME280;14306;49.942;11.570;2024-02-26T01:40:00;95814.94;;;-0.23;100.00
1371;BME280;14306;49.942;11.570;2024-02-26T01:41:36;95818.66;;;-0.19;100.00
1371;BME280;14306;49.942;11.570;2024-02-26T01:43:10;95805.41;;;-0.24;100.00
1371;BME280;14306;49.942;11.570;2024-02-26T01:44:45;95812.81;;;-0.21;100.00
1371;BME280;14306;49.942;11.570;2024-02-26T01:46:19;95807.25;;;-0.24;100.00
1371;BME280;14306;49.942;11.570;2024-02-26T01:47:54;95800.13;;;-0.29;100.00
1371;BME280;14306;49.942;11.570;2024-02-26T01:49:29;95813.38;;;-0.24;100.00
1371;BME280;14306;49.942;11.570;2024-02-26T01:51:03;95814.50;;;-0.35;100.00
1371;BME280;14306;49.942;11.570;2024-02-26T01:52:37;95818.78;;;-0.39;100.00
1371;BME280;14306;49.942;11.570;2024-02-26T01:54:11;95821.94;;;-0.37;100.00
1371;BME280;14306;49.942;11.570;2024-02-26T01:55:45;95818.25;;;-0.41;100.00
1371;BME280;14306;49.942;11.570;2024-02-26T01:57:19;95819.38;;;-0.52;100.00
1371;BME280;14306;49.942;11.570;2024-02-26T01:58:52;95819.84;;;-0.40;100.00
1371;BME280;14306;49.942;11.570;2024-02-26T02:00:28;95824.13;;;-0.49;100.00
1371;BME280;14306;49.942;11.570;2024-02-26T02:02:03;95832.09;;;-0.49;100.00
1371;BME280;14306;49.942;11.570;2024-02-26T02:03:39;95830.75;;;-0.46;100.00
1371;BME280;14306;49.942;11.570;2024-02-26T02:05:16;95814.34;;;-0.58;100.00
1371;BME280;14306;49.942;11.570;2024-02-26T02:06:52;95841.69;;;-0.53;100.00
1371;BME280;14306;49.942;11.570;2024-02-26T02:08:27;95844.38;;;-0.58;100.00
1371;BME280;14306;49.942;11.570;2024-02-26T02:10:01;95828.69;;;-0.59;100.00
1371;BME280;14306;49.942;11.570;2024-02-26T02:11:36;95811.44;;;-0.62;100.00
1371;BME280;14306;49.942;11.570;2024-02-26T02:13:10;95829.72;;;-0.45;100.00
1371;BME280;14306;49.942;11.570;2024-02-26T02:14:43;95830.22;;;-0.38;100.00
1371;BME280;14306;49.942;11.570;2024-02-26T02:16:19;95827.03;;;-0.40;100.00
1371;BME280;14306;49.942;11.570;2024-02-26T02:17:52;95826.97;;;-0.35;100.00
1371;BME280;14306;49.942;11.570;2024-02-26T02:19:26;95829.63;;;-0.35;100.00
1371;BME280;14306;49.942;11.570;2024-02-26T02:21:01;95825.66;;;-0.38;100.00
1371;BME280;14306;49.942;11.570;2024-02-26T02:22:35;95820.69;;;-0.49;100.00
1371;BME280;14306;49.942;11.570;2024-02-26T02:24:09;95820.38;;;-0.43;100.00
1371;BME280;14306;49.942;11.570;2024-02-26T02:25:43;95824.91;;;-0.38;100.00
1371;BME280;14306;49.942;11.570;2024-02-26T02:27:16;95828.91;;;-0.46;100.00
1371;BME280;14306;49.942;11.570;2024-02-26T02:28:51;95823.34;;;-0.49;100.00
1371;BME280;14306;49.942;11.570;2024-02-26T02:30:27;95818.81;;;-0.44;100.00
1371;BME280;14306;49.942;11.570;2024-02-26T02:32:03;95814.06;;;-0.57;100.00
1371;BME280;14306;49.942;11.570;2024-02-26T02:33:37;95829.22;;;-0.52;100.00
1371;BME280;14306;49.942;11.570;2024-02-26T02:35:12;95792.03;;;-0.62;100.00
1371;BME280;14306;49.942;11.570;2024-02-26T02:36:52;95824.41;;;-0.50;100.00
1371;BME280;14306;49.942;11.570;2024-02-26T02:38:26;95816.66;;;-0.42;100.00
1371;BME280;14306;49.942;11.570;2024-02-26T02:40:02;95827.59;;;-0.48;100.00
1371;BME280;14306;49.942;11.570;2024-02-26T02:41:35;95819.34;;;-0.47;100.00
1371;BME280;14306;49.942;11.570;2024-02-26T02:43:10;95778.53;;;-0.66;100.00
1371;BME280;14306;49.942;11.570;2024-02-26T02:44:43;95823.28;;;-0.39;100.00
1371;BME280;14306;49.942;11.570;2024-02-26T02:46:17;95816.72;;;-0.52;100.00
1371;BME280;14306;49.942;11.570;2024-02-26T02:47:51;95819.03;;;-0.40;100.00
1371;BME280;14306;49.942;11.570;2024-02-26T02:49:25;95812.66;;;-0.39;100.00
1371;BME280;14306;49.942;11.570;2024-02-26T02:50:59;95821.03;;;-0.17;100.00
1371;BME280;14306;49.942;11.570;2024-02-26T02:52:34;95811.16;;;-0.12;100.00
1371;BME280;14306;49.942;11.570;2024-02-26T02:54:08;95789.34;;;-0.14;100.00
1371;BME280;14306;49.942;11.570;2024-02-26T02:55:42;95804.09;;;0.08;100.00
1371;BME280;14306;49.942;11.570;2024-02-26T02:57:15;95801.41;;;0.13;100.00
1371;BME280;14306;49.942;11.570;2024-02-26T02:58:49;95796.63;;;0.15;100.00
1371;BME280;14306;49.942;11.570;2024-02-26T03:00:22;95786.00;;;0.09;100.00
1371;BME280;14306;49.942;11.570;2024-02-26T03:01:57;95790.69;;;0.23;100.00
1371;BME280;14306;49.942;11.570;2024-02-26T03:03:30;95788.63;;;0.15;100.00
1371;BME280;14306;49.942;11.570;2024-02-26T03:05:18;95789.13;;;0.17;100.00
1371;BME280;14306;49.942;11.570;2024-02-26T03:06:52;95802.88;;;0.29;100.00
1371;BME280;14306;49.942;11.570;2024-02-26T03:08:28;95804.69;;;0.33;100.00
1371;BME280;14306;49.942;11.570;2024-02-26T03:10:02;95803.06;;;0.37;100.00
1371;BME280;14306;49.942;11.570;2024-02-26T03:11:35;95796.22;;;0.31;100.00
1371;BME280;14306;49.942;11.570;2024-02-26T03:13:09;95807.78;;;0.45;100.00
1371;BME280;14306;49.942;11.570;2024-02-26T03:14:43;95807.44;;;0.52;100.00
1371;BME280;14306;49.942;11.570;2024-02-26T03:16:17;95790.28;;;0.39;100.00
1371;BME280;14306;49.942;11.570;2024-02-26T03:17:50;95808.31;;;0.47;100.00
1371;BME280;14306;49.942;11.570;2024-02-26T03:19:25;95810.13;;;0.52;100.00
1371;BME280;14306;49.942;11.570;2024-02-26T03:20:59;95792.63;;;0.46;100.00
1371;BME280;14306;49.942;11.570;2024-02-26T03:22:33;95806.63;;;0.56;100.00
1371;BME280;14306;49.942;11.570;2024-02-26T03:24:08;95808.19;;;0.57;100.00
1371;BME280;14306;49.942;11.570;2024-02-26T03:25:44;95812.47;;;0.58;100.00
1371;BME280;14306;49.942;11.570;2024-02-26T03:27:24;95804.72;;;0.62;100.00
1371;BME280;14306;49.942;11.570;2024-02-26T03:28:57;95805.38;;;0.49;100.00
1371;BME280;14306;49.942;11.570;2024-02-26T03:30:31;95803.91;;;0.61;100.00
1371;BME280;14306;49.942;11.570;2024-02-26T03:32:05;95814.53;;;0.66;100.00
1371;BME280;14306;49.942;11.570;2024-02-26T03:33:40;95809.69;;;0.68;100.00
1371;BME280;14306;49.942;11.570;2024-02-26T03:35:13;95809.47;;;0.65;100.00
1371;BME280;14306;49.942;11.570;2024-02-26T03:36:47;95797.41;;;0.72;100.00
1371;BME280;14306;49.942;11.570;2024-02-26T03:38:21;95805.53;;;0.57;100.00
1371;BME280;14306;49.942;11.570;2024-02-26T03:39:56;95809.06;;;0.53;100.00
1371;BME280;14306;49.942;11.570;2024-02-26T03:41:31;95784.97;;;0.39;100.00
1371;BME280;14306;49.942;11.570;2024-02-26T03:43:04;95801.22;;;0.38;100.00
1371;BME280;14306;49.942;11.570;2024-02-26T03:44:40;95804.94;;;0.37;100.00
1371;BME280;14306;49.942;11.570;2024-02-26T03:46:14;95802.28;;;0.37;100.00
1371;BME280;14306;49.942;11.570;2024-02-26T03:47:48;95810.03;;;0.33;100.00
1371;BME280;14306;49.942;11.570;2024-02-26T03:49:22;95813.28;;;0.25;100.00
1371;BME280;14306;49.942;11.570;2024-02-26T03:50:55;95808.50;;;0.27;100.00
1371;BME280;14306;49.942;11.570;2024-02-26T03:52:29;95808.72;;;0.31;100.00
1371;BME280;14306;49.942;11.570;2024-02-26T03:54:03;95805.22;;;0.35;100.00
1371;BME280;14306;49.942;11.570;2024-02-26T03:55:38;95777.94;;;0.20;100.00
1371;BME280;14306;49.942;11.570;2024-02-26T03:57:14;95808.13;;;0.39;100.00
1371;BME280;14306;49.942;11.570;2024-02-26T03:58:48;95810.97;;;0.47;100.00
1371;BME280;14306;49.942;11.570;2024-02-26T04:00:22;95818.09;;;0.52;100.00
1371;BME280;14306;49.942;11.570;2024-02-26T04:01:56;95818.69;;;0.49;100.00
1371;BME280;14306;49.942;11.570;2024-02-26T04:03:29;95819.72;;;0.53;100.00
1371;BME280;14306;49.942;11.570;2024-02-26T04:05:04;95812.28;;;0.50;100.00
1371;BME280;14306;49.942;11.570;2024-02-26T04:06:37;95815.63;;;0.60;100.00
1371;BME280;14306;49.942;11.570;2024-02-26T04:08:12;95780.19;;;0.36;100.00
1371;BME280;14306;49.942;11.570;2024-02-26T04:09:45;95814.63;;;0.56;100.00
1371;BME280;14306;49.942;11.570;2024-02-26T04:11:20;95814.66;;;0.51;100.00
1371;BME280;14306;49.942;11.570;2024-02-26T04:12:54;95816.31;;;0.42;100.00
1371;BME280;14306;49.942;11.570;2024-02-26T04:14:28;95810.22;;;0.42;100.00
1371;BME280;14306;49.942;11.570;2024-02-26T04:16:02;95808.06;;;0.44;100.00
1371;BME280;14306;49.942;11.570;2024-02-26T04:17:37;95807.50;;;0.47;100.00
1371;BME280;14306;49.942;11.570;2024-02-26T04:19:10;95806.19;;;0.44;100.00
1371;BME280;14306;49.942;11.570;2024-02-26T04:20:44;95813.22;;;0.30;100.00
1371;BME280;14306;49.942;11.570;2024-02-26T04:22:18;95793.16;;;0.14;100.00
1371;BME280;14306;49.942;11.570;2024-02-26T04:23:52;95814.31;;;0.29;100.00
1371;BME280;14306;49.942;11.570;2024-02-26T04:25:27;95816.69;;;0.31;100.00
1371;BME280;14306;49.942;11.570;2024-02-26T04:27:03;95796.81;;;0.23;100.00
1371;BME280;14306;49.942;11.570;2024-02-26T04:28:37;95812.41;;;0.35;100.00
1371;BME280;14306;49.942;11.570;2024-02-26T04:30:11;95814.47;;;0.43;100.00
1371;BME280;14306;49.942;11.570;2024-02-26T04:31:45;95818.22;;;0.42;100.00
1371;BME280;14306;49.942;11.570;2024-02-26T04:33:19;95790.75;;;0.18;100.00
1371;BME280;14306;49.942;11.570;2024-02-26T04:34:53;95808.94;;;0.34;100.00
1371;BME280;14306;49.942;11.570;2024-02-26T04:36:27;95808.66;;;0.41;100.00
1371;BME280;14306;49.942;11.570;2024-02-26T04:38:01;95803.88;;;0.38;100.00
1371;BME280;14306;49.942;11.570;2024-02-26T04:39:35;95807.22;;;0.48;100.00
1371;BME280;14306;49.942;11.570;2024-02-26T04:41:08;95815.56;;;0.42;100.00
1371;BME280;14306;49.942;11.570;2024-02-26T04:42:44;95811.47;;;0.49;100.00
1371;BME280;14306;49.942;11.570;2024-02-26T04:44:17;95819.44;;;0.54;100.00
1371;BME280;14306;49.942;11.570;2024-02-26T04:45:51;95811.72;;;0.53;100.00
1371;BME280;14306;49.942;11.570;2024-02-26T04:47:25;95824.75;;;0.54;100.00
1371;BME280;14306;49.942;11.570;2024-02-26T04:48:59;95802.66;;;0.54;100.00
1371;BME280;14306;49.942;11.570;2024-02-26T04:50:33;95814.13;;;0.54;100.00
1371;BME280;14306;49.942;11.570;2024-02-26T04:52:07;95822.25;;;0.63;100.00
1371;BME280;14306;49.942;11.570;2024-02-26T04:53:40;95818.56;;;0.64;100.00
1371;BME280;14306;49.942;11.570;2024-02-26T04:55:14;95815.31;;;0.67;100.00
1371;BME280;14306;49.942;11.570;2024-02-26T04:56:48;95822.75;;;0.70;100.00
1371;BME280;14306;49.942;11.570;2024-02-26T04:58:23;95823.75;;;0.74;100.00
1371;BME280;14306;49.942;11.570;2024-02-26T04:59:57;95820.34;;;0.68;100.00
1371;BME280;14306;49.942;11.570;2024-02-26T05:01:32;95832.84;;;0.73;100.00
1371;BME280;14306;49.942;11.570;2024-02-26T05:03:05;95828.81;;;0.75;100.00
1371;BME280;14306;49.942;11.570;2024-02-26T05:04:40;95826.69;;;0.77;100.00
1371;BME280;14306;49.942;11.570;2024-02-26T05:06:13;95831.47;;;0.75;100.00
1371;BME280;14306;49.942;11.570;2024-02-26T05:07:48;95828.13;;;0.65;100.00
1371;BME280;14306;49.942;11.570;2024-02-26T05:09:21;95854.75;;;0.65;100.00
1371;BME280;14306;49.942;11.570;2024-02-26T05:10:56;95833.72;;;0.63;100.00
1371;BME280;14306;49.942;11.570;2024-02-26T05:12:29;95838.25;;;0.63;100.00
1371;BME280;14306;49.942;11.570;2024-02-26T05:14:05;95832.91;;;0.63;100.00
1371;BME280;14306;49.942;11.570;2024-02-26T05:15:38;95839.09;;;0.58;100.00
1371;BME280;14306;49.942;11.570;2024-02-26T05:17:12;95833.53;;;0.55;100.00
1371;BME280;14306;49.942;11.570;2024-02-26T05:18:45;95829.56;;;0.52;100.00
1371;BME280;14306;49.942;11.570;2024-02-26T05:20:20;95815.59;;;0.37;100.00
1371;BME280;14306;49.942;11.570;2024-02-26T05:21:53;95838.38;;;0.48;100.00
1371;BME280;14306;49.942;11.570;2024-02-26T05:23:27;95828.31;;;0.45;100.00
1371;BME280;14306;49.942;11.570;2024-02-26T05:25:00;95833.09;;;0.43;100.00
1371;BME280;14306;49.942;11.570;2024-02-26T05:26:36;95832.88;;;0.39;100.00
1371;BME280;14306;49.942;11.570;2024-02-26T05:28:09;95819.16;;;0.22;100.00
1371;BME280;14306;49.942;11.570;2024-02-26T05:29:44;95836.19;;;0.21;100.00
1371;BME280;14306;49.942;11.570;2024-02-26T05:31:19;95834.84;;;0.24;100.00
1371;BME280;14306;49.942;11.570;2024-02-26T05:32:53;95825.88;;;0.15;100.00
1371;BME280;14306;49.942;11.570;2024-02-26T05:34:26;95842.63;;;0.15;100.00
1371;BME280;14306;49.942;11.570;2024-02-26T05:36:03;95843.47;;;0.11;100.00
1371;BME280;14306;49.942;11.570;2024-02-26T05:37:37;95845.59;;;0.08;100.00
1371;BME280;14306;49.942;11.570;2024-02-26T05:39:12;95851.78;;;0.04;100.00
1371;BME280;14306;49.942;11.570;2024-02-26T05:40:50;95845.84;;;0.12;100.00
1371;BME280;14306;49.942;11.570;2024-02-26T05:42:25;95849.81;;;0.15;100.00
1371;BME280;14306;49.942;11.570;2024-02-26T05:43:58;95851.41;;;0.16;100.00
1371;BME280;14306;49.942;11.570;2024-02-26T05:45:34;95857.00;;;0.14;100.00
1371;BME280;14306;49.942;11.570;2024-02-26T05:47:07;95858.75;;;0.29;100.00
1371;BME280;14306;49.942;11.570;2024-02-26T05:48:41;95828.00;;;0.18;100.00
1371;BME280;14306;49.942;11.570;2024-02-26T05:50:15;95833.47;;;0.31;100.00
1371;BME280;14306;49.942;11.570;2024-02-26T05:51:49;95844.00;;;0.46;100.00
1371;BME280;14306;49.942;11.570;2024-02-26T05:53:22;95836.25;;;0.50;100.00
1371;BME280;14306;49.942;11.570;2024-02-26T05:54:56;95837.31;;;0.49;100.00
1371;BME280;14306;49.942;11.570;2024-02-26T05:56:29;95841.28;;;0.51;100.00
1371;BME280;14306;49.942;11.570;2024-02-26T05:58:04;95824.22;;;0.52;100.00
1371;BME280;14306;49.942;11.570;2024-02-26T05:59:37;95841.66;;;0.68;100.00
1371;BME280;14306;49.942;11.570;2024-02-26T06:01:12;95850.13;;;0.75;100.00
1371;BME280;14306;49.942;11.570;2024-02-26T06:02:46;95846.91;;;0.78;100.00
1371;BME280;14306;49.942;11.570;2024-02-26T06:04:20;95828.25;;;0.78;100.00
1371;BME280;14306;49.942;11.570;2024-02-26T06:05:53;95841.25;;;0.85;100.00
1371;BME280;14306;49.942;11.570;2024-02-26T06:07:28;95842.44;;;0.97;100.00
1371;BME280;14306;49.942;11.570;2024-02-26T06:09:01;95843.75;;;1.00;100.00
1371;BME280;14306;49.942;11.570;2024-02-26T06:10:38;95839.50;;;0.99;100.00
1371;BME280;14306;49.942;11.570;2024-02-26T06:12:12;95851.59;;;1.15;100.00
1371;BME280;14306;49.942;11.570;2024-02-26T06:13:46;95859.25;;;1.21;100.00
1371;BME280;14306;49.942;11.570;2024-02-26T06:15:19;95852.44;;;1.34;100.00
1371;BME280;14306;49.942;11.570;2024-02-26T06:16:55;95850.81;;;1.38;100.00
1371;BME280;14306;49.942;11.570;2024-02-26T06:18:28;95851.47;;;1.48;100.00
1371;BME280;14306;49.942;11.570;2024-02-26T06:20:03;95858.06;;;1.56;100.00
1371;BME280;14306;49.942;11.570;2024-02-26T06:21:38;95851.13;;;1.55;100.00
1371;BME280;14306;49.942;11.570;2024-02-26T06:23:12;95855.69;;;1.73;100.00
1371;BME280;14306;49.942;11.570;2024-02-26T06:24:45;95850.59;;;1.76;100.00
1371;BME280;14306;49.942;11.570;2024-02-26T06:26:19;95857.31;;;1.92;100.00
1371;BME280;14306;49.942;11.570;2024-02-26T06:27:54;95861.00;;;2.15;100.00
1371;BME280;14306;49.942;11.570;2024-02-26T06:29:28;95860.28;;;2.28;100.00
1371;BME280;14306;49.942;11.570;2024-02-26T06:31:01;95864.88;;;2.41;100.00
1371;BME280;14306;49.942;11.570;2024-02-26T06:32:38;95870.38;;;2.49;100.00
1371;BME280;14306;49.942;11.570;2024-02-26T06:34:11;95866.25;;;2.38;100.00
1371;BME280;14306;49.942;11.570;2024-02-26T06:35:45;95868.41;;;2.55;100.00
1371;BME280;14306;49.942;11.570;2024-02-26T06:37:19;95876.72;;;2.53;100.00
1371;BME280;14306;49.942;11.570;2024-02-26T06:38:53;95865.28;;;2.66;100.00
1371;BME280;14306;49.942;11.570;2024-02-26T06:40:27;95866.31;;;2.84;100.00
1371;BME280;14306;49.942;11.570;2024-02-26T06:42:02;95862.03;;;3.28;100.00
1371;BME280;14306;49.942;11.570;2024-02-26T06:43:35;95849.56;;;3.64;100.00
1371;BME280;14306;49.942;11.570;2024-02-26T06:45:09;95861.25;;;3.82;100.00
1371;BME280;14306;49.942;11.570;2024-02-26T06:46:43;95861.84;;;3.92;100.00
1371;BME280;14306;49.942;11.570;2024-02-26T06:48:19;95864.53;;;4.28;100.00
1371;BME280;14306;49.942;11.570;2024-02-26T06:49:53;95868.88;;;4.82;100.00
1371;BME280;14306;49.942;11.570;2024-02-26T06:51:31;95877.50;;;4.92;100.00
1371;BME280;14306;49.942;11.570;2024-02-26T06:53:05;95884.88;;;4.65;100.00
1371;BME280;14306;49.942;11.570;2024-02-26T06:54:40;95888.94;;;4.62;100.00
1371;BME280;14306;49.942;11.570;2024-02-26T06:56:14;95895.63;;;4.51;100.00
1371;BME280;14306;49.942;11.570;2024-02-26T06:57:48;95902.94;;;4.59;100.00
1371;BME280;14306;49.942;11.570;2024-02-26T06:59:22;95906.84;;;4.53;100.00
1371;BME280;14306;49.942;11.570;2024-02-26T07:00:56;95912.78;;;4.64;100.00
1371;BME280;14306;49.942;11.570;2024-02-26T07:02:29;95922.78;;;4.72;100.00
1371;BME280;14306;49.942;11.570;2024-02-26T07:04:05;95922.41;;;5.09;100.00
1371;BME280;14306;49.942;11.570;2024-02-26T07:05:38;95935.13;;;5.47;100.00
1371;BME280;14306;49.942;11.570;2024-02-26T07:07:12;95942.69;;;6.96;100.00
1371;BME280;14306;49.942;11.570;2024-02-26T07:08:46;95973.34;;;7.63;100.00
1371;BME280;14306;49.942;11.570;2024-02-26T07:10:20;95995.47;;;7.77;100.00
1371;BME280;14306;49.942;11.570;2024-02-26T07:11:54;96012.75;;;7.76;100.00
1371;BME280;14306;49.942;11.570;2024-02-26T07:13:32;96020.41;;;7.15;100.00
1371;BME280;14306;49.942;11.570;2024-02-26T07:15:08;96046.97;;;8.01;100.00
1371;BME280;14306;49.942;11.570;2024-02-26T07:16:43;96044.56;;;8.92;100.00
1371;BME280;14306;49.942;11.570;2024-02-26T07:18:16;96049.91;;;9.21;100.00
1371;BME280;14306;49.942;11.570;2024-02-26T07:19:52;96064.13;;;9.92;100.00
1371;BME280;14306;49.942;11.570;2024-02-26T07:21:25;96063.00;;;10.94;100.00
1371;BME280;14306;49.942;11.570;2024-02-26T07:23:00;96044.56;;;10.39;100.00
1371;BME280;14306;49.942;11.570;2024-02-26T07:24:33;96062.06;;;10.54;100.00
1371;BME280;14306;49.942;11.570;2024-02-26T07:26:07;96058.25;;;11.03;100.00
1371;BME280;14306;49.942;11.570;2024-02-26T07:27:41;96062.75;;;11.74;100.00
1371;BME280;14306;49.942;11.570;2024-02-26T07:29:15;96064.69;;;11.74;100.00
1371;BME280;14306;49.942;11.570;2024-02-26T07:30:49;96061.41;;;12.67;100.00
1371;BME280;14306;49.942;11.570;2024-02-26T07:32:23;96069.66;;;13.17;100.00
1371;BME280;14306;49.942;11.570;2024-02-26T07:33:57;96060.31;;;12.25;100.00
1371;BME280;14306;49.942;11.570;2024-02-26T07:35:32;96079.59;;;12.08;100.00
1371;BME280;14306;49.942;11.570;2024-02-26T07:37:06;96065.66;;;11.30;100.00
1371;BME280;14306;49.942;11.570;2024-02-26T07:38:39;96065.59;;;11.02;100.00
1371;BME280;14306;49.942;11.570;2024-02-26T07:40:16;96060.03;;;10.51;100.00
1371;BME280;14306;49.942;11.570;2024-02-26T07:41:49;96060.53;;;10.00;100.00
1371;BME280;14306;49.942;11.570;2024-02-26T07:43:26;96056.31;;;9.17;100.00
1371;BME280;14306;49.942;11.570;2024-02-26T07:44:59;96069.44;;;8.31;100.00
1371;BME280;14306;49.942;11.570;2024-02-26T07:46:34;96065.47;;;8.20;100.00
1371;BME280;14306;49.942;11.570;2024-02-26T07:48:08;96057.88;;;8.05;100.00
1371;BME280;14306;49.942;11.570;2024-02-26T07:49:42;96066.75;;;8.14;100.00
1371;BME280;14306;49.942;11.570;2024-02-26T07:51:16;96052.63;;;8.26;100.00
1371;BME280;14306;49.942;11.570;2024-02-26T07:52:52;96059.38;;;8.49;100.00
1371;BME280;14306;49.942;11.570;2024-02-26T07:54:26;96062.03;;;8.02;100.00
1371;BME280;14306;49.942;11.570;2024-02-26T07:56:00;96065.66;;;8.06;100.00
1371;BME280;14306;49.942;11.570;2024-02-26T07:57:33;96057.28;;;7.99;100.00
1371;BME280;14306;49.942;11.570;2024-02-26T07:59:08;96091.00;;;8.14;100.00
1371;BME280;14306;49.942;11.570;2024-02-26T08:00:42;96074.06;;;8.05;100.00
1371;BME280;14306;49.942;11.570;2024-02-26T08:02:17;96060.84;;;8.29;100.00
1371;BME280;14306;49.942;11.570;2024-02-26T08:03:50;96070.81;;;8.37;100.00
1371;BME280;14306;49.942;11.570;2024-02-26T08:05:25;96075.34;;;8.25;100.00
1371;BME280;14306;49.942;11.570;2024-02-26T08:06:59;96065.88;;;7.67;100.00
1371;BME280;14306;49.942;11.570;2024-02-26T08:08:34;96067.47;;;7.77;100.00
1371;BME280;14306;49.942;11.570;2024-02-26T08:10:08;96065.22;;;7.79;100.00
1371;BME280;14306;49.942;11.570;2024-02-26T08:11:42;96071.25;;;7.76;100.00
1371;BME280;14306;49.942;11.570;2024-02-26T08:13:16;96056.81;;;7.80;100.00
1371;BME280;14306;49.942;11.570;2024-02-26T08:14:50;96076.50;;;7.81;100.00
1371;BME280;14306;49.942;11.570;2024-02-26T08:16:24;96078.38;;;7.89;100.00
1371;BME280;14306;49.942;11.570;2024-02-26T08:17:59;96068.22;;;7.77;100.00